createdAt,value
2023-01-13T00:01:47.546Z,2.17
2023-01-13T00:04:14.617Z,2.00
2023-01-13T00:06:41.693Z,2.00
2023-01-13T00:09:08.997Z,2.38
2023-01-13T00:11:36.046Z,2.10
2023-01-13T00:14:03.127Z,2.17
2023-01-13T00:16:30.171Z,2.63
2023-01-13T00:18:57.263Z,2.20
2023-01-13T00:21:25.090Z,2.42
2023-01-13T00:23:53.998Z,2.35
2023-01-13T00:26:24.361Z,2.00
2023-01-13T00:28:56.235Z,2.70
2023-01-13T00:31:23.344Z,2.60
2023-01-13T00:33:51.041Z,3.47
2023-01-13T00:36:20.560Z,2.00
2023-01-13T00:38:47.965Z,1.83
2023-01-13T00:41:17.693Z,1.67
2023-01-13T00:43:45.240Z,1.77
2023-01-13T00:46:14.334Z,1.20
2023-01-13T00:48:41.606Z,1.17
2023-01-13T00:51:13.336Z,1.80
2023-01-13T00:53:45.452Z,1.50
2023-01-13T00:56:19.949Z,3.83
2023-01-13T00:58:56.975Z,1.73
2023-01-13T01:01:24.744Z,2.55
2023-01-13T01:03:53.283Z,2.42
2023-01-13T01:06:24.163Z,2.13
2023-01-13T01:08:52.648Z,1.88
2023-01-13T01:11:26.395Z,2.47
2023-01-13T01:13:55.619Z,1.73
2023-01-13T01:16:24.835Z,1.63
2023-01-13T01:18:53.190Z,1.87
2023-01-13T01:21:22.776Z,1.67
2023-01-13T01:23:50.413Z,1.33
2023-01-13T01:26:22.960Z,1.50
2023-01-13T01:28:50.225Z,1.50
2023-01-13T01:31:25.233Z,1.05
2023-01-13T01:33:53.708Z,1.10
2023-01-13T01:36:22.337Z,1.10
2023-01-13T01:38:49.921Z,1.02
2023-01-13T01:41:28.626Z,1.00
2023-01-13T01:44:02.120Z,0.90
2023-01-13T01:46:40.862Z,0.93
2023-01-13T01:49:22.926Z,0.98
2023-01-13T01:52:02.030Z,0.90
2023-01-13T01:54:50.931Z,0.90
2023-01-13T01:57:49.344Z,0.90
2023-01-13T02:00:16.634Z,1.00
2023-01-13T02:02:46.746Z,1.03
2023-01-13T02:05:14.134Z,1.30
2023-01-13T02:07:42.996Z,1.33
2023-01-13T02:10:13.708Z,1.58
2023-01-13T02:12:42.897Z,1.25
2023-01-13T02:15:13.859Z,1.10
2023-01-13T02:18:05.482Z,1.63
2023-01-13T02:20:35.321Z,2.58
2023-01-13T02:23:57.569Z,2.58
2023-01-13T02:26:35.934Z,1.95
2023-01-13T02:29:36.778Z,2.50
2023-01-13T02:32:15.128Z,1.80
2023-01-13T02:34:53.325Z,1.52
2023-01-13T02:37:28.705Z,1.20
2023-01-13T02:40:01.410Z,1.10
2023-01-13T02:42:53.033Z,1.00
2023-01-13T02:45:33.689Z,1.23
2023-01-13T02:48:04.994Z,0.90
2023-01-13T02:50:41.606Z,0.95
2023-01-13T02:53:14.370Z,0.90
2023-01-13T02:55:46.686Z,0.80
2023-01-13T02:58:18.650Z,0.88
2023-01-13T03:00:47.892Z,1.27
2023-01-13T03:03:15.018Z,1.10
2023-01-13T03:05:44.573Z,1.60
2023-01-13T03:08:26.566Z,1.70
2023-01-13T03:11:12.620Z,1.33
2023-01-13T03:13:56.222Z,1.60
2023-01-13T03:16:29.362Z,2.93
2023-01-13T03:19:08.739Z,2.17
2023-01-13T03:22:01.345Z,1.70
2023-01-13T03:24:36.535Z,1.73
2023-01-13T03:27:32.252Z,2.03
2023-01-13T03:30:12.831Z,1.98
2023-01-13T03:32:43.878Z,2.22
2023-01-13T03:35:24.610Z,2.40
2023-01-13T03:38:03.328Z,2.92
2023-01-13T03:40:35.346Z,2.67
2023-01-13T03:43:33.412Z,3.17
2023-01-13T03:46:06.523Z,2.65
2023-01-13T03:48:35.733Z,1.90
2023-01-13T03:51:07.355Z,2.75
2023-01-13T03:53:47.505Z,2.40
2023-01-13T03:57:07.021Z,1.70
2023-01-13T03:59:40.075Z,1.48
2023-01-13T04:02:27.027Z,1.60
2023-01-13T04:05:02.810Z,1.30
2023-01-13T04:07:54.316Z,1.23
2023-01-13T04:10:31.066Z,1.50
2023-01-13T04:13:12.461Z,1.10
2023-01-13T04:15:42.706Z,1.33
2023-01-13T04:18:11.629Z,1.20
2023-01-13T04:20:40.082Z,1.20
2023-01-13T04:23:07.442Z,1.20
2023-01-13T04:25:34.760Z,0.90
2023-01-13T04:28:02.161Z,0.80
2023-01-13T04:30:29.215Z,0.85
2023-01-13T04:32:56.364Z,0.85
2023-01-13T04:35:23.593Z,1.10
2023-01-13T04:37:50.682Z,1.08
2023-01-13T04:40:17.829Z,0.90
2023-01-13T04:42:45.311Z,1.10
2023-01-13T04:45:12.487Z,1.10
2023-01-13T04:47:40.201Z,0.90
2023-01-13T04:50:07.853Z,0.63
2023-01-13T04:52:34.920Z,1.00
2023-01-13T04:55:02.019Z,0.75
2023-01-13T04:57:29.614Z,1.27
2023-01-13T04:59:56.707Z,2.53
2023-01-13T05:02:23.835Z,1.48
2023-01-13T05:04:50.972Z,1.42
2023-01-13T05:07:18.396Z,1.55
2023-01-13T05:09:45.495Z,2.27
2023-01-13T05:12:31.217Z,1.50
2023-01-13T05:15:17.041Z,2.00
2023-01-13T05:17:44.436Z,2.60
2023-01-13T05:20:13.007Z,3.38
2023-01-13T05:22:58.687Z,2.15
2023-01-13T05:25:26.887Z,1.83
2023-01-13T05:27:59.073Z,1.77
2023-01-13T05:30:28.833Z,1.45
2023-01-13T05:32:56.108Z,1.50
2023-01-13T05:35:24.030Z,1.17
2023-01-13T05:37:51.413Z,1.10
2023-01-13T05:40:38.173Z,1.00
2023-01-13T05:43:22.041Z,1.23
2023-01-13T05:45:52.295Z,0.90
2023-01-13T05:48:21.305Z,1.50
2023-01-13T05:50:52.509Z,1.00
2023-01-13T05:53:21.022Z,1.00
2023-01-13T05:55:48.770Z,1.10
2023-01-13T05:58:17.889Z,0.98
2023-01-13T06:00:45.729Z,1.10
2023-01-13T06:03:13.499Z,1.08
2023-01-13T06:05:40.728Z,1.00
2023-01-13T06:08:09.118Z,1.00
2023-01-13T06:10:36.326Z,0.90
2023-01-13T06:13:04.198Z,2.13
2023-01-13T06:15:34.594Z,1.63
2023-01-13T06:18:05.311Z,1.40
2023-01-13T06:20:32.447Z,1.35
2023-01-13T06:23:00.313Z,1.50
2023-01-13T06:25:36.448Z,1.33
2023-01-13T06:28:04.202Z,1.25
2023-01-13T06:30:38.576Z,1.15
2023-01-13T06:33:10.171Z,1.20
2023-01-13T06:35:38.716Z,1.20
2023-01-13T06:38:09.465Z,1.20
2023-01-13T06:40:37.072Z,1.15
2023-01-13T06:43:17.125Z,1.57
2023-01-13T06:45:55.740Z,1.70
2023-01-13T06:48:29.850Z,1.80
2023-01-13T06:50:57.027Z,2.20
2023-01-13T06:53:24.062Z,1.95
2023-01-13T06:55:51.307Z,1.98
2023-01-13T06:58:18.411Z,2.50
2023-01-13T07:00:49.553Z,2.53
2023-01-13T07:03:18.718Z,2.10
2023-01-13T07:05:52.876Z,2.63
2023-01-13T07:08:20.444Z,2.40
2023-01-13T07:10:47.500Z,2.45
2023-01-13T07:13:37.692Z,2.88
2023-01-13T07:16:06.951Z,4.17
2023-01-13T07:18:34.764Z,3.47
2023-01-13T07:21:05.521Z,5.60
2023-01-13T07:23:36.478Z,5.15
2023-01-13T07:26:04.259Z,5.32
2023-01-13T07:28:32.112Z,4.60
2023-01-13T07:30:59.245Z,4.30
2023-01-13T07:33:26.460Z,4.25
2023-01-13T07:35:58.677Z,3.80
2023-01-13T07:38:26.715Z,6.38
2023-01-13T07:40:54.432Z,4.60
2023-01-13T07:43:33.691Z,5.50
2023-01-13T07:46:05.809Z,5.45
2023-01-13T07:48:34.160Z,4.82
2023-01-13T07:51:06.086Z,4.70
2023-01-13T07:53:33.831Z,3.90
2023-01-13T07:56:01.491Z,3.90
2023-01-13T07:58:29.299Z,3.50
2023-01-13T08:00:57.662Z,3.50
2023-01-13T08:03:24.967Z,3.30
2023-01-13T08:05:52.092Z,2.42
2023-01-13T08:08:19.596Z,2.70
2023-01-13T08:10:46.715Z,2.67
2023-01-13T08:13:19.936Z,2.38
2023-01-13T08:15:52.996Z,2.83
2023-01-13T08:18:22.285Z,2.45
2023-01-13T08:20:52.292Z,2.58
2023-01-13T08:23:23.014Z,2.43
2023-01-13T08:25:50.327Z,2.50
2023-01-13T08:28:17.794Z,2.17
2023-01-13T08:30:44.933Z,1.90
2023-01-13T08:33:13.330Z,2.17
2023-01-13T08:35:41.595Z,1.83
2023-01-13T08:38:09.065Z,2.10
2023-01-13T08:40:36.562Z,1.85
2023-01-13T08:43:03.680Z,2.30
2023-01-13T08:45:30.993Z,1.80
2023-01-13T08:47:58.070Z,2.00
2023-01-13T08:50:25.280Z,1.85
2023-01-13T08:52:52.514Z,2.00
2023-01-13T08:55:20.085Z,1.85
2023-01-13T08:57:47.221Z,1.77
2023-01-13T09:00:14.789Z,1.80
2023-01-13T09:02:41.823Z,2.97
2023-01-13T09:05:10.490Z,1.98
2023-01-13T09:07:38.839Z,4.38
2023-01-13T09:10:07.691Z,2.72
2023-01-13T09:12:53.916Z,2.42
2023-01-13T09:15:21.801Z,1.92
2023-01-13T09:17:48.944Z,2.03
2023-01-13T09:20:16.136Z,2.13
2023-01-13T09:22:43.260Z,2.45
2023-01-13T09:25:10.471Z,2.20
2023-01-13T09:27:37.603Z,1.63
2023-01-13T09:30:05.713Z,1.70
2023-01-13T09:32:32.997Z,3.80
2023-01-13T09:35:00.159Z,2.80
2023-01-13T09:37:34.087Z,4.10
2023-01-13T09:40:02.027Z,2.90
2023-01-13T09:42:57.570Z,3.27
2023-01-13T09:45:46.682Z,1.88
2023-01-13T09:48:23.909Z,2.97
2023-01-13T09:51:17.494Z,2.95
2023-01-13T09:53:55.936Z,4.13
2023-01-13T09:56:24.377Z,7.95
2023-01-13T09:58:52.088Z,6.65
2023-01-13T10:01:28.021Z,12.23
2023-01-13T10:03:55.241Z,11.90
2023-01-13T10:06:34.727Z,8.30
2023-01-13T10:09:01.971Z,7.88
2023-01-13T10:11:54.134Z,4.15
2023-01-13T10:14:37.593Z,3.95
2023-01-13T10:17:45.909Z,2.97
2023-01-13T10:20:21.864Z,2.55
2023-01-13T10:23:23.424Z,1.55
2023-01-13T10:26:23.940Z,8.77
2023-01-13T10:28:53.114Z,4.35
2023-01-13T10:31:22.122Z,1.70
2023-01-13T10:33:57.588Z,1.70
2023-01-13T10:36:24.732Z,1.55
2023-01-13T10:38:52.001Z,2.63
2023-01-13T10:41:27.964Z,2.50
2023-01-13T10:44:01.452Z,8.30
2023-01-13T10:46:29.478Z,7.45
2023-01-13T10:48:57.587Z,6.07
2023-01-13T10:51:39.659Z,6.55
2023-01-13T10:54:12.976Z,6.97
2023-01-13T10:56:42.329Z,6.10
2023-01-13T10:59:28.914Z,5.18
2023-01-13T11:02:26.267Z,4.40
2023-01-13T11:04:53.863Z,5.07
2023-01-13T11:07:29.920Z,4.90
2023-01-13T11:10:09.329Z,4.13
2023-01-13T11:12:58.546Z,4.20
2023-01-13T11:15:44.850Z,4.00
2023-01-13T11:19:02.322Z,5.30
2023-01-13T11:21:33.940Z,4.05
2023-01-13T11:24:15.338Z,3.83
2023-01-13T11:26:58.090Z,3.88
2023-01-13T11:29:36.403Z,3.63
2023-01-13T11:32:18.653Z,4.22
2023-01-13T11:34:52.477Z,4.63
2023-01-13T11:37:31.158Z,3.60
2023-01-13T11:40:09.434Z,4.75
2023-01-13T11:42:50.762Z,5.00
2023-01-13T11:45:39.853Z,5.10
2023-01-13T11:48:15.206Z,3.85
2023-01-13T11:50:55.000Z,5.15
2023-01-13T11:53:42.268Z,4.40
2023-01-13T11:56:12.102Z,4.82
2023-01-13T11:59:06.511Z,3.90
2023-01-13T12:02:05.021Z,3.00
2023-01-13T12:05:03.329Z,2.42
2023-01-13T12:07:53.554Z,2.90
2023-01-13T12:10:42.731Z,2.50
2023-01-13T12:13:42.796Z,2.65
2023-01-13T12:16:21.333Z,2.53
2023-01-13T12:19:10.387Z,1.77
2023-01-13T12:22:08.575Z,2.10
2023-01-13T12:24:43.708Z,2.22
2023-01-13T12:27:18.125Z,1.70
2023-01-13T12:29:47.634Z,2.30
2023-01-13T12:32:20.850Z,2.90
2023-01-13T12:35:16.746Z,2.80
2023-01-13T12:38:19.335Z,2.25
2023-01-13T12:41:12.083Z,2.10
2023-01-13T12:44:06.968Z,1.98
2023-01-13T12:46:35.089Z,2.13
2023-01-13T12:49:02.158Z,2.15
2023-01-13T12:51:33.140Z,2.25
2023-01-13T12:54:02.316Z,2.67
2023-01-13T12:56:42.243Z,4.93
2023-01-13T12:59:21.318Z,5.22
2023-01-13T13:02:12.613Z,4.32
2023-01-13T13:04:52.425Z,3.60
2023-01-13T13:07:32.709Z,4.38
2023-01-13T13:10:01.561Z,4.65
2023-01-13T13:12:59.500Z,4.53
2023-01-13T13:15:29.013Z,5.35
2023-01-13T13:18:16.678Z,4.13
2023-01-13T13:20:58.967Z,4.10
2023-01-13T13:23:39.241Z,4.55
2023-01-13T13:26:21.377Z,3.00
2023-01-13T13:29:26.407Z,2.73
2023-01-13T13:32:10.067Z,2.65
2023-01-13T13:34:56.494Z,2.03
2023-01-13T13:38:07.726Z,2.35
2023-01-13T13:40:59.243Z,1.97
2023-01-13T13:43:46.261Z,2.58
2023-01-13T13:46:41.500Z,2.25
2023-01-13T13:49:08.561Z,3.28
2023-01-13T13:51:41.426Z,2.40
2023-01-13T13:54:13.142Z,2.10
2023-01-13T13:56:43.896Z,2.47
2023-01-13T13:59:15.226Z,2.10
2023-01-13T14:01:45.307Z,2.37
2023-01-13T14:04:20.961Z,2.38
2023-01-13T14:07:20.529Z,3.03
2023-01-13T14:09:56.413Z,2.90
2023-01-13T14:12:26.047Z,3.37
2023-01-13T14:14:56.725Z,3.20
2023-01-13T14:17:27.633Z,3.17
2023-01-13T14:20:05.114Z,3.10
2023-01-13T14:22:32.914Z,2.63
2023-01-13T14:25:01.768Z,2.40
2023-01-13T14:27:30.545Z,2.23
2023-01-13T14:30:00.668Z,2.00
2023-01-13T14:32:36.684Z,2.10
2023-01-13T14:35:07.812Z,2.17
2023-01-13T14:37:36.580Z,2.22
2023-01-13T14:40:06.262Z,1.77
2023-01-13T14:42:35.281Z,1.90
2023-01-13T14:45:03.231Z,2.50
2023-01-13T14:47:33.757Z,1.70
2023-01-13T14:50:15.990Z,2.22
2023-01-13T14:52:55.842Z,2.25
2023-01-13T14:55:31.776Z,2.10
2023-01-13T14:58:28.324Z,1.83
2023-01-13T15:01:28.773Z,2.55
2023-01-13T15:04:16.854Z,2.92
2023-01-13T15:06:47.608Z,3.15
2023-01-13T15:09:22.833Z,3.40
2023-01-13T15:11:49.870Z,3.72
2023-01-13T15:14:29.894Z,2.63
2023-01-13T15:16:57.737Z,2.90
2023-01-13T15:19:24.833Z,2.78
2023-01-13T15:21:51.921Z,2.70
2023-01-13T15:24:18.960Z,2.50
2023-01-13T15:26:46.066Z,2.20
2023-01-13T15:29:15.168Z,2.87
2023-01-13T15:31:42.391Z,1.83
2023-01-13T15:34:09.478Z,1.60
2023-01-13T15:36:37.792Z,1.60
2023-01-13T15:39:05.109Z,1.33
2023-01-13T15:41:50.971Z,1.60
2023-01-13T15:44:36.572Z,1.80
2023-01-13T15:47:07.202Z,1.55
2023-01-13T15:49:41.027Z,1.85
2023-01-13T15:52:34.425Z,1.63
2023-01-13T15:55:01.485Z,1.60
2023-01-13T15:57:32.481Z,1.90
2023-01-13T16:00:07.976Z,2.58
2023-01-13T16:02:35.093Z,2.67
2023-01-13T16:05:02.152Z,2.15
2023-01-13T16:07:29.358Z,2.30
2023-01-13T16:09:56.531Z,2.40
2023-01-13T16:12:23.713Z,2.50
2023-01-13T16:14:50.832Z,1.95
2023-01-13T16:17:20.551Z,3.25
2023-01-13T16:19:47.916Z,5.05
2023-01-13T16:22:16.336Z,2.40
2023-01-13T16:24:44.139Z,2.53
2023-01-13T16:27:15.307Z,2.47
2023-01-13T16:29:43.199Z,2.30
2023-01-13T16:32:10.579Z,2.25
2023-01-13T16:34:37.637Z,1.97
2023-01-13T16:37:06.271Z,3.87
2023-01-13T16:39:33.432Z,2.28
2023-01-13T16:42:00.510Z,2.00
2023-01-13T16:44:27.552Z,2.30
2023-01-13T16:46:54.614Z,2.00
2023-01-13T16:49:21.651Z,2.20
2023-01-13T16:51:48.707Z,2.22
2023-01-13T16:54:15.791Z,1.90
2023-01-13T16:56:42.953Z,1.95
2023-01-13T16:59:14.102Z,1.85
2023-01-13T17:01:43.105Z,1.50
2023-01-13T17:04:21.605Z,7.87
2023-01-13T17:06:57.258Z,2.72
2023-01-13T17:09:26.390Z,2.30
2023-01-13T17:11:53.570Z,2.83
2023-01-13T17:14:23.207Z,2.23
2023-01-13T17:16:52.162Z,2.65
2023-01-13T17:19:21.331Z,2.50
2023-01-13T17:21:50.815Z,2.25
2023-01-13T17:24:18.021Z,2.83
2023-01-13T17:26:49.103Z,6.63
2023-01-13T17:29:22.979Z,8.85
2023-01-13T17:31:50.982Z,9.15
2023-01-13T17:34:19.782Z,7.50
2023-01-13T17:36:47.291Z,7.20
2023-01-13T17:39:24.221Z,7.85
2023-01-13T17:41:52.833Z,6.40
2023-01-13T17:44:21.809Z,6.05
2023-01-13T17:46:49.323Z,7.60
2023-01-13T17:49:18.502Z,4.73
2023-01-13T17:51:48.113Z,4.50
2023-01-13T17:54:15.754Z,4.00
2023-01-13T17:56:43.716Z,4.40
2023-01-13T17:59:15.304Z,3.70
2023-01-13T18:01:42.486Z,3.20
2023-01-13T18:04:15.065Z,3.10
2023-01-13T18:06:42.399Z,3.17
2023-01-13T18:09:09.631Z,2.90
2023-01-13T18:11:36.729Z,2.70
2023-01-13T18:14:04.146Z,2.38
2023-01-13T18:16:32.292Z,3.30
2023-01-13T18:19:18.337Z,2.45
2023-01-13T18:22:05.577Z,2.70
2023-01-13T18:24:51.138Z,2.15
2023-01-13T18:27:22.946Z,2.03
2023-01-13T18:29:55.986Z,1.95
2023-01-13T18:32:26.372Z,3.00
2023-01-13T18:35:04.841Z,2.13
2023-01-13T18:37:35.634Z,2.10
2023-01-13T18:40:03.499Z,1.67
2023-01-13T18:42:49.188Z,1.50
2023-01-13T18:45:16.338Z,1.40
2023-01-13T18:47:43.453Z,1.70
2023-01-13T18:50:13.636Z,2.22
2023-01-13T18:52:41.262Z,2.90
2023-01-13T18:55:09.369Z,3.10
2023-01-13T18:57:42.942Z,3.45
2023-01-13T19:00:13.712Z,2.50
2023-01-13T19:02:41.019Z,2.60
2023-01-13T19:05:08.956Z,2.30
2023-01-13T19:07:36.717Z,2.28
2023-01-13T19:10:04.797Z,1.80
2023-01-13T19:12:33.616Z,1.83
2023-01-13T19:15:02.092Z,1.65
2023-01-13T19:17:34.897Z,1.90
2023-01-13T19:20:03.861Z,1.40
2023-01-13T19:22:33.745Z,1.65
2023-01-13T19:25:02.303Z,1.67
2023-01-13T19:27:29.818Z,1.55
2023-01-13T19:30:02.980Z,1.75
2023-01-13T19:32:32.594Z,1.73
2023-01-13T19:34:59.866Z,2.80
2023-01-13T19:37:31.397Z,2.00
2023-01-13T19:39:59.318Z,1.92
2023-01-13T19:42:45.246Z,2.38
2023-01-13T19:45:33.740Z,2.22
2023-01-13T19:48:05.780Z,2.35
2023-01-13T19:50:37.503Z,1.98
2023-01-13T19:53:06.121Z,2.22
2023-01-13T19:55:33.475Z,2.40
2023-01-13T19:58:00.724Z,2.83
2023-01-13T20:00:27.875Z,2.45
2023-01-13T20:02:56.677Z,2.58
2023-01-13T20:05:25.825Z,3.10
2023-01-13T20:07:53.885Z,3.13
2023-01-13T20:10:22.199Z,3.00
2023-01-13T20:12:49.349Z,4.53
2023-01-13T20:15:16.563Z,1.92
2023-01-13T20:17:43.666Z,2.27
2023-01-13T20:20:12.065Z,2.00
2023-01-13T20:22:39.889Z,1.95
2023-01-13T20:25:08.032Z,1.83
2023-01-13T20:27:35.830Z,1.70
2023-01-13T20:30:05.236Z,1.70
2023-01-13T20:32:32.304Z,1.60
2023-01-13T20:34:59.348Z,1.50
2023-01-13T20:37:26.660Z,1.65
2023-01-13T20:39:55.138Z,1.40
2023-01-13T20:42:41.007Z,1.30
2023-01-13T20:45:08.772Z,1.50
2023-01-13T20:47:35.896Z,1.15
2023-01-13T20:50:03.553Z,1.48
2023-01-13T20:52:30.647Z,1.23
2023-01-13T20:54:57.697Z,2.85
2023-01-13T20:57:24.762Z,1.60
2023-01-13T20:59:51.877Z,1.67
2023-01-13T21:02:20.161Z,1.40
2023-01-13T21:04:47.200Z,1.38
2023-01-13T21:07:14.349Z,1.30
2023-01-13T21:09:41.456Z,1.40
2023-01-13T21:12:32.585Z,1.35
2023-01-13T21:15:18.275Z,1.40
2023-01-13T21:18:06.128Z,1.52
2023-01-13T21:20:37.703Z,1.60
2023-01-13T21:23:05.661Z,1.97
2023-01-13T21:25:35.539Z,1.70
2023-01-13T21:28:06.166Z,1.90
2023-01-13T21:30:34.129Z,1.80
2023-01-13T21:33:02.430Z,1.70
2023-01-13T21:35:29.802Z,2.15
2023-01-13T21:37:57.666Z,2.22
2023-01-13T21:40:24.783Z,2.50
2023-01-13T21:43:10.775Z,2.50
2023-01-13T21:45:57.676Z,1.90
2023-01-13T21:48:24.842Z,1.60
2023-01-13T21:50:51.886Z,1.40
2023-01-13T21:53:19.007Z,1.10
2023-01-13T21:55:50.586Z,1.13
2023-01-13T21:58:17.700Z,2.00
2023-01-13T22:00:45.365Z,2.80
2023-01-13T22:03:14.439Z,1.60
2023-01-13T22:05:41.504Z,2.30
2023-01-13T22:08:08.586Z,1.33
2023-01-13T22:10:35.677Z,1.58
2023-01-13T22:13:23.678Z,1.30
2023-01-13T22:15:50.784Z,1.27
2023-01-13T22:18:20.833Z,1.40
2023-01-13T22:20:49.056Z,1.55
2023-01-13T22:23:16.124Z,1.30
2023-01-13T22:25:43.214Z,1.15
2023-01-13T22:28:13.706Z,1.20
2023-01-13T22:30:41.149Z,2.33
2023-01-13T22:33:08.204Z,1.42
2023-01-13T22:35:35.304Z,1.50
2023-01-13T22:38:02.341Z,1.60
2023-01-13T22:40:29.429Z,1.40
2023-01-13T22:42:56.468Z,1.48
2023-01-13T22:45:23.513Z,3.00
2023-01-13T22:47:50.612Z,2.13
2023-01-13T22:50:20.740Z,2.28
2023-01-13T22:52:47.939Z,1.92
2023-01-13T22:55:15.055Z,1.88
2023-01-13T22:57:47.824Z,2.05
2023-01-13T23:00:18.679Z,3.00
2023-01-13T23:02:45.796Z,1.92
2023-01-13T23:05:13.663Z,1.80
2023-01-13T23:07:40.980Z,1.70
2023-01-13T23:10:08.682Z,1.50
2023-01-13T23:12:35.779Z,1.33
2023-01-13T23:15:03.652Z,1.25
2023-01-13T23:17:30.769Z,2.10
2023-01-13T23:19:57.843Z,2.72
2023-01-13T23:22:24.891Z,1.83
2023-01-13T23:24:51.950Z,1.55
2023-01-13T23:27:19.049Z,1.52
2023-01-13T23:29:46.134Z,1.30
2023-01-13T23:32:13.199Z,1.10
2023-01-13T23:34:40.275Z,1.63
2023-01-13T23:37:07.337Z,1.63
2023-01-13T23:39:34.399Z,1.15
2023-01-13T23:42:01.486Z,1.50
2023-01-13T23:44:29.334Z,1.45
2023-01-13T23:46:56.436Z,1.65
2023-01-13T23:49:23.607Z,1.60
2023-01-13T23:51:51.662Z,1.45
2023-01-13T23:54:19.866Z,1.42
2023-01-13T23:56:49.402Z,1.00
2023-01-13T23:59:16.499Z,1.40
